Flight Track Log - Related Links

Times and Time Zones

All times are in EDT time to prevent confusion due to time zone crossing. See the TCF3444 flight status page for this flight to view local times or setup timezone preferences in your user account.

Time Position Orientation Groundspeed Altitude Reporting Facility
EDT Latitude Longitude Course Direction KTS MPH feet Rate Location/Type
Mon 10:34:31 PM 41.9333 -87.9000 90° East 163 188 2,000  Level Chicago TRACON
Mon 10:35:37 PM 41.9500 -87.8000 77° East 249 287 4,200 2,627 Climbing Chicago TRACON
Mon 10:37:00 PM 41.9391 -87.2136 95° East  Level FlightAware Approximate
Mon 10:37:52 PM 41.9436 -87.5706 92° East 304 350 10,800  Level Chicago Center
Mon 10:38:00 PM 41.9333 -87.1081 90° East  Level FlightAware Approximate
Mon 10:38:53 PM 41.9447 -87.4478 89° East 322 371 14,300  Level Chicago Center
Mon 10:39:00 PM 41.9333 -87.0022 90° East  Level FlightAware Approximate
Mon 10:39:54 PM 41.9439 -87.3075 90° East 361 415 15,900  Level Chicago Center
Mon 10:40:55 PM 41.9436 -87.1253 90° East 400 460 19,100 2,607 Climbing Chicago Center
Mon 10:41:56 PM 41.9447 -86.9686 89° East 415 478 21,200 1,967 Climbing Chicago Center
Mon 10:42:57 PM 41.9483 -86.8050 88° East 433 498 23,100 1,902 Climbing Chicago Center
Mon 10:43:59 PM 41.9489 -86.6269 90° East 452 520 25,100 1,756 Climbing Chicago Center
Mon 10:45:00 PM 41.9517 -86.4539 89° East 461 531 26,700 1,475 Climbing Chicago Center
Mon 10:46:01 PM 41.9536 -86.2753 89° East 473 544 28,100 1,279 Climbing Chicago Center
Mon 10:47:02 PM 41.9319 -86.0975 99° East 481 554 29,300 1,328 Climbing Chicago Center
Mon 10:48:03 PM 41.9008 -85.9178 103° East 492 566 30,800 836 Climbing Chicago Center
Mon 10:49:04 PM 41.8808 -85.7367 98° East 490 564 31,000 98 Climbing Chicago Center
Mon 10:50:05 PM 41.8608 -85.5553 98° East 487 560 31,000  Level Chicago Center
Mon 10:51:06 PM 41.8392 -85.3714 99° East 491 565 31,000  Level Chicago Center
Mon 10:52:07 PM 41.8161 -85.1889 100° East 489 563 31,000  Level Chicago Center
Mon 10:52:34 PM 41.8100 -85.1108 96° East 479 551 31,000  Level Cleveland Center
Mon 10:53:34 PM 41.7856 -84.9364 101° East 479 551 31,000  Level Cleveland Center
Mon 10:54:34 PM 41.7464 -84.7583 106° East 484 557 31,000  Level Cleveland Center
Mon 10:55:33 PM 41.7044 -84.5858 108° East 484 557 31,000  Level Cleveland Center
Mon 10:56:34 PM 41.6600 -84.4217 110° East 479 551 31,000  Level Cleveland Center
Mon 10:57:33 PM 41.6097 -84.2383 110° East 474 545 31,000  Level Cleveland Center
Mon 10:58:34 PM 41.5650 -84.0719 110° East 474 545 31,000  Level Cleveland Center
Mon 10:59:33 PM 41.5219 -83.9031 109° East 474 545 31,000  Level Cleveland Center
Mon 11:00:33 PM 41.4786 -83.7372 109° East 474 545 31,000  Level Cleveland Center
Mon 11:01:34 PM 41.4372 -83.5747 109° East 474 545 31,000  Level Cleveland Center
Mon 11:02:33 PM 41.3914 -83.4119 111° Southeast 474 545 31,000  Level Cleveland Center
Mon 11:03:34 PM 41.3494 -83.2469 109° East 474 545 31,000  Level Cleveland Center
Mon 11:04:34 PM 41.3089 -83.0986 110° East 474 545 31,000  Level Cleveland Center
Mon 11:05:34 PM 41.2647 -82.9311 109° East 474 545 31,000  Level Cleveland Center
Mon 11:06:33 PM 41.2139 -82.7528 111° Southeast 474 545 31,000  Level Cleveland Center
Mon 11:07:33 PM 41.1692 -82.5831 109° East 479 551 31,000  Level Cleveland Center
Mon 11:08:34 PM 41.1239 -82.4217 110° East 469 540 31,000  Level Cleveland Center
Mon 11:09:34 PM 41.0783 -82.2550 110° East 475 547 31,000  Level Cleveland Center
Mon 11:10:34 PM 41.0328 -82.0917 110° East 475 547 31,000 -1,150 Level Cleveland Center
Mon 11:11:34 PM 40.9869 -81.9308 111° Southeast 475 547 28,700 -2,571 Descending Cleveland Center
Mon 11:12:33 PM 40.9406 -81.7733 111° Southeast 475 547 25,900 -2,700 Descending Cleveland Center
Mon 11:13:34 PM 40.9006 -81.6214 109° East 450 518 23,300 -2,550 Descending Cleveland Center
Mon 11:14:33 PM 40.8578 -81.4753 111° Southeast 436 502 20,800 -2,521 Descending Cleveland Center
Mon 11:15:33 PM 40.8172 -81.3347 111° Southeast 419 482 18,300 -2,450 Descending Cleveland Center
Mon 11:16:33 PM 40.7764 -81.2000 112° Southeast 399 459 15,900 -2,281 Descending Cleveland Center
Mon 11:17:34 PM 40.7414 -81.0736 110° East 382 440 13,700 -2,250 Descending Cleveland Center
Mon 11:18:33 PM 40.7025 -80.9472 112° Southeast 370 426 11,400 -1,866 Descending Cleveland Center
Mon 11:19:33 PM 40.6589 -80.8514 121° Southeast 364 419 10,000 -1,140 Descending Cleveland Center
Mon 11:20:34 PM 40.6092 -80.7444 121° Southeast 331 381 9,100 -1,450 Descending Cleveland Center
Mon 11:21:33 PM 40.5694 -80.6569 121° Southeast 300 345 7,100 -1,866 Descending Cleveland Center
Mon 11:22:33 PM 40.5319 -80.5722 120° Southeast 282 325 5,400 -1,600 Descending Cleveland Center
Mon 11:23:33 PM 40.5092 -80.4847 109° East 269 310 3,900 -1,100 Descending Cleveland Center
Mon 11:24:33 PM 40.5047 -80.4083 94° East 248 285 3,200 -700 Descending Cleveland Center

Login

Don't have an account? Register now (free) for customized features, flight alerts, and more!